Aérodrome :
LOGIN :

S'inscrire | Disclaimer

   EN    FR    IT 

 










Légende :    VFR   VFR Marginal   IFR   IFR Intensif   IFR Très Intensif
Visi : 
Plafond : 
>= 8 km
>= 3000ft
5 à 8 km
1000 à 3000 ft
1500m à 5 km
500 à 1000 ft
800 à 1500m
200 à 500 ft
< 800m
< 200 ft
Symboles :   Orages  Brouillard  Fortes neiges  Fortes précipitations  Vent > 20 kt
SIGMETs :   Divers  Orages  Givrage  Turbulence  Onde Orograph.  Cendres Volcan.







- Altitude de l'aérodrome : 1830 ft


EBLB - Butgenbach Elsenborn

DERNIER METAR :
  • 161525Z AUTO 26011KT 9999 -RASN BKN022/// 02/M01 Q0994 WHT

METARs EXPIRÉS :
  • 161455Z AUTO 29007KT 9999 -RA OVC021/// 01/M00 Q0994 WHT
  • 161449Z AUTO 29009KT 9999 -RASN OVC020/// 01/M00 Q0994 WHT
  • 161438Z AUTO 28010KT 3500 -SN OVC020/// 01/M00 Q0994 YLO
  • 161410Z AUTO 28012KT 3300 -SN BKN025/// 02/M01 Q0994 YLO
  • 161355Z AUTO 28014KT 9999 BKN024/// 03/M01 Q0994 WHT
  • 161325Z AUTO 27013G25KT 9999 BKN019/// 03/M00 Q0994 WHT
  • 161255Z AUTO 27016G29KT 9999 BKN022/// 03/M01 Q0994 WHT
  • 161225Z AUTO 27016KT 9999 BKN017/// BKN086/// 03/00 Q0994 WHT

Prévision TAF périmée.
Pas de NOTAMs connus pour ce terrain.



MET'MAP, la Météo Aéronautique d'un coup d'oeil ! - Copyright ORBIFLY Décembre 2007 - Disclaimer

ORBIFLY MET'MAP TEAM :

Programmation & Développement : Alexandra Zaïnal
Conception & Développement : Baudouin d'Aumeries
Co-Programmation & Développement : Marc-Olivier Méhu
Soutien technique & logistique : Manuel Goepfert

Contact : metmap@orbifly.com




SOURCES & CREDITS :

   NOAA